Time;durP1;ratioP1;P1;durP2;ratioP2;P2;SDS_P1;SDS_P2;PMS_P1;PMS_P2;Temp;Humidity;BMP_temperature;BMP_pressure;BME280_temperature;BME280_humidity;BME280_pressure;Samples;Min_cycle;Max_cycle;Signal;HPM_P1;HPM_P2
2022/04/23 00:02:20;;;;;;;10.20;8.00;;;;;;;11.50;57.82;97754.59;5095974;28;40795;-75
2022/04/23 00:04:48;;;;;;;10.73;8.27;;;;;;;11.50;57.41;97753.75;5111909;28;42737;-74
2022/04/23 00:07:16;;;;;;;10.70;7.80;;;;;;;11.50;57.28;97751.13;5113075;28;43416;-75
2022/04/23 00:09:43;;;;;;;10.13;8.20;;;;;;;11.42;57.26;97740.31;5096138;28;38519;-75
2022/04/23 00:12:12;;;;;;;9.37;7.67;;;;;;;11.45;57.47;97748.03;5112396;28;40588;-76
2022/04/23 00:14:40;;;;;;;9.40;7.33;;;;;;;11.41;56.98;97746.59;5113036;28;43559;-75
2022/04/23 00:17:08;;;;;;;10.00;7.77;;;;;;;11.42;57.33;97753.56;5112616;28;42145;-75
2022/04/23 00:19:36;;;;;;;10.20;7.43;;;;;;;11.43;56.92;97742.84;5095387;28;38932;-75
2022/04/23 00:22:04;;;;;;;10.00;7.87;;;;;;;11.45;57.34;97746.22;5129442;27;42726;-75
2022/04/23 00:24:32;;;;;;;9.93;7.17;;;;;;;11.48;57.05;97737.16;5095307;28;41711;-75
2022/04/23 00:26:59;;;;;;;7.73;6.00;;;;;;;11.51;56.87;97736.88;5112226;28;42025;-77
2022/04/23 00:29:29;;;;;;;8.67;7.57;;;;;;;11.53;57.23;97735.78;5112729;28;40201;-75
2022/04/23 00:31:56;;;;;;;9.60;7.13;;;;;;;11.51;57.18;97731.59;5095517;28;40580;-76
2022/04/23 00:34:25;;;;;;;9.07;7.70;;;;;;;11.48;57.52;97726.56;5095745;28;42561;-76
2022/04/23 00:36:53;;;;;;;8.90;7.77;;;;;;;11.54;58.20;97720.72;5112418;28;41270;-75
2022/04/23 00:39:21;;;;;;;8.60;7.10;;;;;;;11.55;58.07;97729.53;5129839;27;40464;-75
2022/04/23 00:41:51;;;;;;;9.40;7.87;;;;;;;11.53;58.36;97733.16;5111751;28;41746;-75
2022/04/23 00:44:19;;;;;;;10.50;8.03;;;;;;;11.53;58.94;97734.94;5112133;28;42081;-76
2022/04/23 00:46:48;;;;;;;11.60;8.23;;;;;;;11.52;58.67;97727.97;5112001;28;42379;-76
2022/04/23 00:49:16;;;;;;;9.73;7.43;;;;;;;11.53;58.78;97734.94;5112571;28;41874;-75
2022/04/23 00:51:45;;;;;;;9.50;7.87;;;;;;;11.51;58.81;97732.44;5112177;28;41706;-75
2022/04/23 00:54:13;;;;;;;9.97;8.10;;;;;;;11.51;58.99;97726.28;5094697;28;42984;-75
2022/04/23 00:56:41;;;;;;;8.57;7.20;;;;;;;11.53;58.61;97734.94;5113401;28;42388;-75
2022/04/23 00:59:11;;;;;;;12.27;8.40;;;;;;;11.53;59.92;97719.03;5113661;28;40620;-75
2022/04/23 01:01:41;;;;;;;9.50;7.70;;;;;;;11.52;59.75;97723.50;5111798;28;42150;-75
2022/04/23 01:04:12;;;;;;;10.80;8.63;;;;;;;11.50;59.77;97719.28;5113099;28;43539;-74
2022/04/23 01:06:40;;;;;;;9.83;8.00;;;;;;;11.45;60.14;97721.50;5112099;28;41365;-75
2022/04/23 01:09:09;;;;;;;11.57;8.73;;;;;;;11.47;60.59;97724.88;5094543;28;39993;-75
2022/04/23 01:11:38;;;;;;;8.07;7.13;;;;;;;11.44;60.46;97725.13;5112857;28;42691;-75
2022/04/23 01:14:06;;;;;;;10.63;8.00;;;;;;;11.40;60.77;97721.03;5094955;28;42760;-75
2022/04/23 01:16:34;;;;;;;10.40;8.23;;;;;;;11.33;60.95;97727.84;5111669;28;41067;-76
2022/04/23 01:19:02;;;;;;;10.27;8.37;;;;;;;11.27;61.38;97723.03;5111788;28;39328;-75
2022/04/23 01:21:31;;;;;;;10.53;8.80;;;;;;;11.21;61.41;97723.56;5111506;28;40672;-75
2022/04/23 01:23:58;;;;;;;12.20;8.63;;;;;;;11.15;61.30;97730.19;5094804;28;41975;-75
2022/04/23 01:26:28;;;;;;;9.63;7.87;;;;;;;11.11;61.65;97728.78;5094370;28;41100;-75
2022/04/23 01:28:57;;;;;;;9.43;7.60;;;;;;;11.09;61.68;97731.56;5094096;28;38856;-75
2022/04/23 01:31:25;;;;;;;8.13;6.93;;;;;;;11.02;61.40;97724.22;5095430;28;41270;-75
2022/04/23 01:33:53;;;;;;;9.63;6.97;;;;;;;11.10;61.29;97733.25;5112288;28;44650;-75
2022/04/23 01:36:21;;;;;;;8.60;7.13;;;;;;;11.09;61.65;97731.56;5111940;28;42003;-75
2022/04/23 01:38:50;;;;;;;9.50;7.73;;;;;;;11.06;62.31;97725.66;5112466;28;41493;-76
2022/04/23 01:41:18;;;;;;;9.27;7.10;;;;;;;11.02;62.72;97727.72;5112268;28;41756;-76
2022/04/23 01:43:46;;;;;;;8.00;6.73;;;;;;;10.98;62.76;97726.31;5095201;28;41744;-75
2022/04/23 01:46:13;;;;;;;9.77;7.20;;;;;;;10.94;62.53;97732.81;5095006;28;41176;-77
2022/04/23 01:48:41;;;;;;;8.70;6.93;;;;;;;10.90;62.61;97735.81;5094962;28;38895;-78
2022/04/23 01:51:10;;;;;;;8.17;6.63;;;;;;;10.84;62.83;97739.84;5115673;27;42734;-77
2022/04/23 01:53:38;;;;;;;7.23;5.90;;;;;;;10.77;62.47;97736.81;5111922;28;43726;-76
2022/04/23 01:56:07;;;;;;;9.83;6.97;;;;;;;10.71;63.21;97741.78;5113428;28;43276;-76
2022/04/23 01:58:35;;;;;;;8.67;7.30;;;;;;;10.67;63.52;97745.66;5094901;28;39882;-76
2022/04/23 02:01:03;;;;;;;8.80;7.23;;;;;;;10.29;63.44;97704.56;5113037;28;41816;-76
2022/04/23 02:03:32;;;;;;;8.40;6.83;;;;;;;10.38;63.60;97718.88;5112022;28;43775;-76
2022/04/23 02:06:00;;;;;;;8.63;7.20;;;;;;;10.50;64.05;97735.59;5111302;27;42266;-76
2022/04/23 02:08:28;;;;;;;8.07;6.60;;;;;;;10.45;63.89;97749.19;5111278;28;39740;-76
2022/04/23 02:10:55;;;;;;;8.17;6.47;;;;;;;10.41;63.87;97753.84;5094769;28;40698;-76
2022/04/23 02:13:26;;;;;;;7.67;6.33;;;;;;;10.25;64.45;97729.59;5111322;28;43667;-76
2022/04/23 02:15:54;;;;;;;9.30;6.87;;;;;;;10.36;64.45;97750.75;5108729;28;43115;-76
2022/04/23 02:18:22;;;;;;;8.73;6.83;;;;;;;10.08;65.30;97703.59;5093566;28;39038;-76
2022/04/23 02:20:50;;;;;;;9.63;8.13;;;;;;;10.36;65.03;97753.41;5111558;28;40757;-76
2022/04/23 02:23:18;;;;;;;8.03;6.63;;;;;;;10.36;65.95;97742.81;5112815;28;43593;-76
2022/04/23 02:25:46;;;;;;;9.37;6.17;;;;;;;10.41;65.02;97751.22;5111028;28;41291;-75
2022/04/23 02:28:14;;;;;;;8.17;6.07;;;;;;;10.47;65.11;97749.06;5093869;28;39854;-76
2022/04/23 02:30:43;;;;;;;8.50;6.23;;;;;;;10.51;65.11;97750.50;5111568;28;40579;-76
2022/04/23 02:33:10;;;;;;;8.97;6.43;;;;;;;10.55;65.38;97751.91;5094275;28;43000;-75
2022/04/23 02:35:39;;;;;;;6.63;5.97;;;;;;;10.60;65.47;97747.13;5111112;28;42284;-76
2022/04/23 02:38:07;;;;;;;6.33;5.73;;;;;;;10.66;64.61;97749.25;5094086;28;39208;-75
2022/04/23 02:40:35;;;;;;;6.80;6.07;;;;;;;10.76;64.62;97751.03;5111435;28;40283;-76
2022/04/23 02:43:04;;;;;;;6.27;5.53;;;;;;;10.75;64.01;97748.53;5111829;28;43905;-76
2022/04/23 02:45:32;;;;;;;6.30;5.30;;;;;;;10.90;63.63;97757.88;5112366;28;43360;-75
2022/04/23 02:48:01;;;;;;;6.27;5.13;;;;;;;10.94;63.89;97755.81;5112347;28;40009;-76
2022/04/23 02:50:30;;;;;;;6.50;5.30;;;;;;;10.96;63.61;97757.38;5111166;28;41730;-76
2022/04/23 02:52:59;;;;;;;6.37;5.30;;;;;;;10.96;63.82;97752.09;5093437;28;41731;-76
2022/04/23 02:55:28;;;;;;;6.97;5.53;;;;;;;10.97;63.98;97752.91;5112533;28;43265;-76
2022/04/23 02:57:57;;;;;;;5.77;5.10;;;;;;;10.98;63.90;97755.44;5110808;28;39961;-76
2022/04/23 03:00:24;;;;;;;7.57;4.77;;;;;;;10.99;63.93;97758.94;5111329;28;42643;-76
2022/04/23 03:02:52;;;;;;;4.77;4.37;;;;;;;10.99;63.72;97761.59;5093679;28;42795;-76
2022/04/23 03:05:22;;;;;;;5.47;4.67;;;;;;;10.99;64.09;97749.19;5110975;28;42277;-76
2022/04/23 03:07:50;;;;;;;5.70;4.77;;;;;;;10.93;63.57;97735.59;5110449;28;38623;-76
2022/04/23 03:10:19;;;;;;;6.10;5.07;;;;;;;11.07;63.69;97749.38;5110873;28;42642;-76
2022/04/23 03:12:47;;;;;;;6.63;5.03;;;;;;;11.10;63.94;97751.78;5093629;28;42045;-76
2022/04/23 03:15:17;;;;;;;5.20;4.53;;;;;;;11.13;63.87;97748.03;5093716;28;41825;-76
2022/04/23 03:17:45;;;;;;;7.03;5.23;;;;;;;11.11;64.03;97745.53;5110250;28;40927;-76
2022/04/23 03:20:13;;;;;;;4.70;4.23;;;;;;;11.18;64.38;97751.16;5093494;28;40564;-76
2022/04/23 03:22:44;;;;;;;5.37;4.23;;;;;;;11.21;63.97;97755.38;5093681;28;41825;-76
2022/04/23 03:25:12;;;;;;;5.90;4.53;;;;;;;11.11;63.85;97734.94;5093825;28;42478;-76
2022/04/23 03:27:41;;;;;;;5.83;4.87;;;;;;;11.16;63.57;97743.31;5093404;28;38808;-75
2022/04/23 03:30:09;;;;;;;5.20;4.33;;;;;;;11.20;63.90;97751.88;5110548;28;42519;-76
2022/04/23 03:32:37;;;;;;;5.40;4.70;;;;;;;11.20;63.65;97748.38;5109919;28;41495;-76
2022/04/23 03:35:06;;;;;;;5.03;4.33;;;;;;;11.15;63.78;97754.03;5110613;28;41329;-76
2022/04/23 03:37:35;;;;;;;4.90;4.40;;;;;;;11.08;63.90;97752.88;5110498;28;40113;-76
2022/04/23 03:40:07;;;;;;;6.83;5.00;;;;;;;11.03;64.05;97747.94;5093227;28;41661;-76
2022/04/23 03:42:36;;;;;;;5.20;4.70;;;;;;;10.89;64.25;97724.38;5109053;28;42931;-75
2022/04/23 03:45:05;;;;;;;5.30;4.57;;;;;;;11.00;64.65;97748.19;5110679;28;41970;-76
2022/04/23 03:47:34;;;;;;;5.90;4.57;;;;;;;11.00;64.68;97742.91;5110110;28;38942;-76
2022/04/23 03:50:04;;;;;;;5.07;4.27;;;;;;;10.95;64.44;97739.81;5110559;28;42387;-76
2022/04/23 03:52:32;;;;;;;4.50;3.93;;;;;;;10.93;64.41;97741.72;5093431;28;42814;-75
2022/04/23 03:54:59;;;;;;;6.97;5.23;;;;;;;10.88;65.29;97743.91;5110535;28;42347;-76
2022/04/23 03:57:28;;;;;;;5.23;4.50;;;;;;;10.93;64.78;97752.31;5110202;28;40940;-76
2022/04/23 03:59:56;;;;;;;5.83;5.23;;;;;;;10.96;64.94;97752.09;5110332;28;40804;-75
2022/04/23 04:02:24;;;;;;;5.20;4.70;;;;;;;11.04;64.31;97759.38;5110092;28;43833;-76
2022/04/23 04:04:52;;;;;;;5.43;4.93;;;;;;;11.09;64.55;97758.06;5110029;28;43122;-75
2022/04/23 04:07:21;;;;;;;6.47;4.57;;;;;;;11.16;64.29;97758.38;5109901;28;39713;-76
2022/04/23 04:09:49;;;;;;;4.97;4.27;;;;;;;11.24;64.09;97760.41;5111467;28;41826;-76
2022/04/23 04:12:17;;;;;;;4.40;4.00;;;;;;;11.29;63.98;97760.88;5092564;28;41881;-76
2022/04/23 04:14:48;;;;;;;4.70;4.10;;;;;;;11.35;63.61;97755.06;5093207;28;41876;-76
2022/04/23 04:17:16;;;;;;;4.97;4.47;;;;;;;11.41;63.63;97759.84;5110117;28;40806;-76
2022/04/23 04:19:44;;;;;;;5.03;4.23;;;;;;;11.44;63.65;97759.59;5110917;28;41373;-76
2022/04/23 04:22:12;;;;;;;5.10;4.23;;;;;;;11.46;63.29;97755.84;5110070;28;41849;-76
2022/04/23 04:24:39;;;;;;;5.60;5.00;;;;;;;11.49;63.70;97760.91;5093074;28;42314;-75
2022/04/23 04:27:08;;;;;;;5.43;4.70;;;;;;;11.53;63.27;97767.63;5109565;28;38893;-76
2022/04/23 04:29:36;;;;;;;6.00;4.90;;;;;;;11.57;63.26;97760.25;5111087;27;41948;-76
2022/04/23 04:32:07;;;;;;;5.70;5.00;;;;;;;11.60;62.88;97757.34;5113158;28;42721;-76
2022/04/23 04:34:35;;;;;;;6.20;4.87;;;;;;;11.64;63.05;97752.59;5096732;28;41194;-76
2022/04/23 04:37:04;;;;;;;7.30;4.83;;;;;;;11.68;62.88;97754.03;5097575;28;40189;-76
2022/04/23 04:39:33;;;;;;;5.07;4.57;;;;;;;11.62;62.68;97739.47;5096020;28;40643;-76
2022/04/23 04:42:01;;;;;;;5.90;4.93;;;;;;;11.65;62.64;97741.88;5113102;28;42871;-76
2022/04/23 04:44:28;;;;;;;5.50;5.00;;;;;;;11.79;62.51;97754.84;5096122;28;41206;-76
2022/04/23 04:46:56;;;;;;;5.03;4.53;;;;;;;11.84;62.19;97760.63;5114115;28;40034;-76
2022/04/23 04:49:25;;;;;;;5.93;4.80;;;;;;;11.90;62.12;97753.09;5113290;28;42656;-76
2022/04/23 04:51:54;;;;;;;5.07;4.57;;;;;;;11.94;61.85;97757.16;5112884;28;42576;-76
2022/04/23 04:54:22;;;;;;;5.03;4.53;;;;;;;11.99;61.81;97762.94;5112836;28;43225;-76
2022/04/23 04:56:50;;;;;;;5.20;4.63;;;;;;;11.94;61.81;97747.41;5095130;28;39437;-76
2022/04/23 04:59:20;;;;;;;6.30;4.63;;;;;;;12.09;61.75;97763.81;5112889;28;40978;-76
2022/04/23 05:01:48;;;;;;;5.37;4.80;;;;;;;12.11;61.62;97768.03;5095766;28;41671;-76
2022/04/23 05:04:16;;;;;;;6.77;5.10;;;;;;;12.12;61.54;97766.19;5112932;28;43992;-75
2022/04/23 05:06:45;;;;;;;6.47;5.13;;;;;;;12.14;61.68;97769.56;5112421;28;40061;-77
2022/04/23 05:09:13;;;;;;;5.77;5.17;;;;;;;12.14;61.66;97766.91;5112978;28;41591;-77
2022/04/23 05:11:41;;;;;;;7.03;6.03;;;;;;;12.15;61.49;97768.59;5112607;28;42357;-75
2022/04/23 05:14:08;;;;;;;8.50;5.87;;;;;;;12.14;61.04;97766.91;5112731;28;42346;-76
2022/04/23 05:16:36;;;;;;;6.30;5.50;;;;;;;12.20;60.98;97777.00;5095301;28;39571;-75
2022/04/23 05:19:03;;;;;;;8.77;6.77;;;;;;;12.21;60.79;97774.22;5095240;28;41693;-76
2022/04/23 05:21:31;;;;;;;8.83;7.27;;;;;;;12.23;60.68;97777.59;5113463;28;42767;-76
2022/04/23 05:24:00;;;;;;;8.20;7.07;;;;;;;12.19;60.76;97772.66;5095099;28;41075;-76
2022/04/23 05:26:28;;;;;;;9.17;6.20;;;;;;;12.03;60.64;97735.13;5112309;28;40983;-76
2022/04/23 05:28:55;;;;;;;8.20;6.53;;;;;;;12.39;60.37;97781.53;5095161;28;40681;-76
2022/04/23 05:31:23;;;;;;;8.67;6.70;;;;;;;12.37;60.57;97765.75;5112185;28;42878;-76
2022/04/23 05:33:51;;;;;;;7.47;6.37;;;;;;;12.51;60.01;97781.31;5113489;28;42275;-76
2022/04/23 05:36:19;;;;;;;6.97;6.27;;;;;;;12.59;59.74;97785.97;5111706;28;41188;-75
2022/04/23 05:38:49;;;;;;;8.47;7.13;;;;;;;12.59;59.71;97773.53;5095112;28;41445;-75
2022/04/23 05:41:18;;;;;;;10.03;7.93;;;;;;;12.68;59.37;97781.66;5112299;28;42879;-76
2022/04/23 05:43:45;;;;;;;9.47;7.17;;;;;;;12.79;59.02;97800.16;5111549;28;42514;-76
2022/04/23 05:46:15;;;;;;;8.50;7.50;;;;;;;12.90;59.30;97786.75;5112155;28;39928;-77
2022/04/23 05:48:43;;;;;;;9.47;7.97;;;;;;;12.96;58.52;97780.91;5129214;27;41630;-77
2022/04/23 05:51:11;;;;;;;10.27;7.93;;;;;;;13.12;58.28;97786.50;5112205;28;42768;-76
2022/04/23 05:53:38;;;;;;;9.97;7.40;;;;;;;13.22;58.16;97786.56;5111572;28;42659;-76
2022/04/23 05:56:06;;;;;;;9.97;7.80;;;;;;;13.22;57.52;97781.25;5116024;27;40762;-77
2022/04/23 05:58:36;;;;;;;9.77;7.53;;;;;;;13.45;57.59;97787.16;5094577;28;40727;-76
2022/04/23 06:01:05;;;;;;;10.60;8.77;;;;;;;13.46;57.24;97786.16;5113352;28;43421;-76
2022/04/23 06:03:33;;;;;;;10.47;8.77;;;;;;;13.52;56.90;97801.53;5094193;28;41149;-76
2022/04/23 06:06:00;;;;;;;11.23;8.97;;;;;;;13.59;57.06;97797.38;5111814;28;39930;-76
2022/04/23 06:08:28;;;;;;;11.43;8.67;;;;;;;13.64;56.58;97803.94;5111494;28;41501;-76
2022/04/23 06:10:56;;;;;;;10.60;8.70;;;;;;;13.42;56.75;97763.47;5111661;28;42940;-76
2022/04/23 06:13:23;;;;;;;10.87;8.97;;;;;;;13.81;56.34;97805.03;5111186;28;42644;-76
2022/04/23 06:15:52;;;;;;;12.57;9.60;;;;;;;13.89;56.32;97807.81;5111968;28;41037;-76
2022/04/23 06:18:20;;;;;;;11.50;9.53;;;;;;;13.87;55.83;97799.13;5128549;27;41979;-76
2022/04/23 06:20:47;;;;;;;11.63;9.37;;;;;;;13.76;55.71;97770.03;5112687;28;42738;-76
2022/04/23 06:23:15;;;;;;;12.07;9.03;;;;;;;14.08;55.43;97808.78;5094339;28;41101;-76
2022/04/23 06:25:42;;;;;;;11.97;9.40;;;;;;;14.11;55.81;97808.47;5094541;28;39914;-76
2022/04/23 06:28:10;;;;;;;11.73;9.43;;;;;;;14.23;55.34;97805.50;5112516;28;41980;-76
2022/04/23 06:30:38;;;;;;;11.33;9.10;;;;;;;14.48;54.80;97817.38;5111486;28;42424;-76
2022/04/23 06:33:08;;;;;;;11.73;9.73;;;;;;;14.71;54.25;97800.03;5112436;28;42249;-76
2022/04/23 06:35:35;;;;;;;13.27;9.90;;;;;;;15.01;53.47;97816.72;5094473;28;40351;-76
2022/04/23 06:38:03;;;;;;;12.57;9.97;;;;;;;15.19;52.99;97814.09;5111312;28;41762;-76
2022/04/23 06:40:31;;;;;;;10.53;9.13;;;;;;;15.55;52.02;97807.00;5111180;28;42803;-76
2022/04/23 06:42:58;;;;;;;12.47;10.40;;;;;;;15.76;51.73;97812.84;5097950;28;41183;-77
2022/04/23 06:45:34;;;;;;;12.00;9.07;;;;;;;15.87;51.72;97819.78;5093139;28;39207;-76
2022/04/23 06:48:04;;;;;;;12.50;9.80;;;;;;;15.88;51.69;97816.97;5111764;28;42673;-75
2022/04/23 06:50:35;;;;;;;11.87;9.90;;;;;;;15.73;50.75;97827.34;5111480;28;42660;-75
2022/04/23 06:53:03;;;;;;;10.23;8.80;;;;;;;15.83;51.64;97816.56;5110003;27;42276;-75
2022/04/23 06:55:31;;;;;;;11.13;9.20;;;;;;;15.87;51.55;97809.94;5111158;28;40053;-75
2022/04/23 06:57:59;;;;;;;12.17;10.30;;;;;;;15.91;50.79;97827.34;5109984;28;42756;-75
2022/04/23 07:00:27;;;;;;;12.67;9.83;;;;;;;16.03;50.80;97823.44;5110904;28;42561;-75
2022/04/23 07:02:54;;;;;;;11.90;9.67;;;;;;;16.37;50.11;97828.00;5095749;27;41832;-75
2022/04/23 07:05:22;;;;;;;10.93;9.00;;;;;;;16.58;49.25;97838.31;5095267;28;41838;-75
2022/04/23 07:07:59;;;;;;;11.53;9.53;;;;;;;16.48;48.75;97838.44;5092745;28;41983;-76
2022/04/23 07:10:27;;;;;;;11.57;8.67;;;;;;;16.51;48.94;97843.47;5108361;28;42846;-75
2022/04/23 07:12:56;;;;;;;10.13;9.07;;;;;;;16.67;49.04;97840.09;5109881;28;40945;-75
2022/04/23 07:15:25;;;;;;;11.20;9.03;;;;;;;16.97;48.77;97830.69;5093079;28;40298;-75
2022/04/23 07:17:53;;;;;;;12.70;9.53;;;;;;;17.06;47.64;97848.47;5109924;28;42023;-76
2022/04/23 07:20:21;;;;;;;13.47;10.00;;;;;;;17.08;47.69;97844.63;5109840;28;43761;-76
2022/04/23 07:25:32;;;;;;;12.43;10.37;;;;;;;17.30;47.78;97820.97;5092375;28;40204;-76
2022/04/23 07:28:00;;;;;;;11.63;9.13;;;;;;;17.91;46.59;97850.88;5109437;28;42161;-75
2022/04/23 07:30:28;;;;;;;11.47;9.73;;;;;;;18.12;45.78;97855.72;5109785;28;42241;-75
2022/04/23 07:32:56;;;;;;;11.17;9.13;;;;;;;18.22;45.05;97851.03;5092660;28;41428;-76
2022/04/23 07:38:12;;;;;;;10.90;9.70;;;;;;;19.71;43.55;97852.94;5109783;28;42215;-75
2022/04/23 07:40:41;;;;;;;12.30;10.17;;;;;;;20.01;41.87;97859.28;5109709;28;42748;-76
2022/04/23 07:43:10;;;;;;;11.87;9.00;;;;;;;20.11;40.81;97880.53;5110826;28;42373;-76
2022/04/23 07:45:38;;;;;;;12.03;9.83;;;;;;;20.04;41.51;97863.44;5109930;28;40978;-76
2022/04/23 07:48:06;;;;;;;12.53;9.43;;;;;;;20.17;41.21;97882.47;5110949;28;42746;-76
2022/04/23 07:50:35;;;;;;;11.13;9.77;;;;;;;20.64;40.85;97868.00;5110989;28;42678;-76
2022/04/23 07:53:02;;;;;;;11.10;9.90;;;;;;;21.88;39.06;97877.94;5109593;28;42274;-76
2022/04/23 07:55:33;;;;;;;11.47;9.23;;;;;;;21.60;38.03;97886.75;5092598;28;38852;-76
2022/04/23 07:58:02;;;;;;;10.90;9.80;;;;;;;21.08;39.47;97871.53;5109612;28;41744;-75
2022/04/23 08:00:31;;;;;;;11.50;10.10;;;;;;;20.64;39.45;97878.78;5110818;28;43449;-75
2022/04/23 08:02:59;;;;;;;11.13;9.70;;;;;;;20.28;40.39;97876.69;5110892;28;42324;-76
2022/04/23 08:05:27;;;;;;;13.17;10.00;;;;;;;20.03;41.07;97876.03;5097037;27;39974;-76
2022/04/23 08:07:54;;;;;;;13.17;10.43;;;;;;;19.86;41.87;97869.13;5117897;28;41639;-77
2022/04/23 08:10:22;;;;;;;12.90;10.53;;;;;;;19.80;42.36;97859.06;5118400;28;42991;-77
2022/04/23 08:12:50;;;;;;;12.97;9.67;;;;;;;19.68;41.83;97864.00;5098259;28;42659;-78
2022/04/23 08:15:19;;;;;;;12.77;11.03;;;;;;;19.49;41.89;97861.78;5091703;28;42919;-77
2022/04/23 08:17:47;;;;;;;12.70;9.93;;;;;;;19.40;42.88;97857.47;5098513;28;42329;-76
2022/04/23 08:20:15;;;;;;;11.40;9.43;;;;;;;19.36;43.32;97845.38;5093100;28;42724;-76
2022/04/23 08:22:42;;;;;;;12.33;9.83;;;;;;;19.29;42.60;97855.13;5111752;28;41172;-76
2022/04/23 08:25:11;;;;;;;11.50;9.07;;;;;;;19.33;42.81;97849.25;5112870;28;38928;-76
2022/04/23 08:27:49;;;;;;;13.33;10.93;;;;;;;19.34;42.27;97853.59;5113877;28;41769;-76
2022/04/23 08:30:35;;;;;;;13.87;9.87;;;;;;;19.33;42.67;97853.78;5109691;28;43405;-77
2022/04/23 08:33:03;;;;;;;14.43;10.80;;;;;;;19.11;42.90;97846.50;5111931;28;42324;-76
2022/04/23 08:35:32;;;;;;;11.60;10.40;;;;;;;18.85;43.20;97846.75;5095785;28;41458;-76
2022/04/23 08:37:59;;;;;;;12.43;10.20;;;;;;;18.76;43.12;97854.00;5113286;28;41696;-76
2022/04/23 08:40:29;;;;;;;12.47;9.63;;;;;;;18.91;43.75;97851.47;5112773;28;42596;-76
2022/04/23 08:42:57;;;;;;;14.53;11.37;;;;;;;19.00;43.08;97848.56;5110725;28;43590;-76
2022/04/23 08:45:26;;;;;;;13.97;12.03;;;;;;;19.17;43.03;97843.09;5112644;28;40716;-77
2022/04/23 08:47:59;;;;;;;13.40;11.17;;;;;;;19.20;43.09;97826.66;5112236;28;42084;-77
2022/04/23 08:50:28;;;;;;;12.93;10.43;;;;;;;19.54;42.76;97835.22;5094917;28;42804;-77
2022/04/23 08:52:57;;;;;;;12.60;10.60;;;;;;;19.75;42.09;97847.19;5113270;28;42050;-77
2022/04/23 08:55:27;;;;;;;13.77;11.33;;;;;;;19.94;41.38;97846.72;5112394;28;38999;-77
2022/04/23 08:57:55;;;;;;;12.80;10.67;;;;;;;20.15;41.32;97846.06;5095124;28;41907;-75
2022/04/23 09:00:23;;;;;;;12.93;10.77;;;;;;;20.36;41.04;97848.94;5111351;28;42771;-76
2022/04/23 09:02:52;;;;;;;13.90;10.77;;;;;;;20.53;40.45;97846.91;5090644;28;43302;-76
2022/04/23 09:05:20;;;;;;;14.93;12.43;;;;;;;20.53;40.17;97849.59;5090089;28;41268;-77
2022/04/23 09:07:56;;;;;;;15.67;12.03;;;;;;;21.46;39.51;97849.91;5072658;28;41621;-75
2022/04/23 09:10:43;;;;;;;11.63;9.67;;;;;;;23.14;36.46;97869.88;5099872;28;42732;-75
2022/04/23 09:13:10;;;;;;;12.73;10.50;;;;;;;24.12;34.59;97871.31;5110679;27;42059;-76
2022/04/23 09:24:09;;;;;;;15.60;12.10;;;;;;;23.02;34.74;97872.31;5110037;28;43461;-76
2022/04/23 09:26:36;;;;;;;11.73;10.27;;;;;;;22.45;36.02;97864.41;5111153;28;39376;-76
2022/04/23 09:29:14;;;;;;;13.73;11.10;;;;;;;21.82;37.08;97848.03;5094473;28;42441;-76
2022/04/23 09:31:43;;;;;;;15.00;11.60;;;;;;;21.03;38.43;97828.19;5109904;28;42915;-74
2022/04/23 09:34:20;;;;;;;13.57;11.70;;;;;;;20.52;39.40;97832.66;5111843;28;43222;-75
2022/04/23 09:36:49;;;;;;;17.30;12.87;;;;;;;19.74;40.48;97814.13;5111648;28;38431;-76
2022/04/23 09:39:28;;;;;;;16.10;12.83;;;;;;;19.22;41.53;97811.22;5111609;28;41835;-76
2022/04/23 09:42:11;;;;;;;14.07;11.17;;;;;;;18.93;42.16;97810.00;5094554;28;42098;-75
2022/04/23 09:44:39;;;;;;;14.20;11.53;;;;;;;18.79;42.48;97816.09;5108409;28;43348;-76
2022/04/23 09:47:07;;;;;;;16.33;12.77;;;;;;;18.62;43.33;97814.47;5094724;28;39067;-76
2022/04/23 09:49:38;;;;;;;16.57;12.00;;;;;;;18.75;43.25;97814.78;5094922;28;42163;-76
2022/04/23 09:52:08;;;;;;;13.20;10.80;;;;;;;18.70;42.92;97806.41;5111087;28;43608;-76
2022/04/23 09:54:38;;;;;;;15.57;12.13;;;;;;;18.63;43.15;97811.63;5094423;28;43606;-77
2022/04/23 09:57:06;;;;;;;17.17;12.37;;;;;;;18.62;43.38;97814.47;5110173;27;40771;-76
2022/04/23 09:59:34;;;;;;;19.90;13.20;;;;;;;18.41;43.46;97808.81;5113248;28;41852;-75
2022/04/23 10:02:03;;;;;;;17.40;12.97;;;;;;;18.04;43.64;97795.97;5111660;27;42738;-75
2022/04/23 10:04:32;;;;;;;14.33;11.53;;;;;;;18.02;44.04;97806.84;5111773;28;42759;-76
2022/04/23 10:07:02;;;;;;;16.87;12.70;;;;;;;17.72;44.56;97810.19;5094817;28;38912;-76
2022/04/23 10:09:39;;;;;;;17.90;13.00;;;;;;;17.49;45.02;97800.09;5096792;28;40537;-76
2022/04/23 10:12:10;;;;;;;17.50;12.63;;;;;;;17.37;45.57;97801.41;5107811;27;42768;-75
2022/04/23 10:14:45;;;;;;;19.57;13.63;;;;;;;17.10;45.75;97772.22;5101184;28;41055;-76
2022/04/23 10:17:16;;;;;;;19.60;14.40;;;;;;;17.33;45.85;97800.03;5093882;28;38949;-76
2022/04/23 10:19:44;;;;;;;20.40;13.90;;;;;;;17.36;46.34;97799.72;5107508;28;41596;-76
2022/04/23 10:22:21;;;;;;;16.47;13.17;;;;;;;17.37;45.76;97806.75;5090051;28;41262;-76
2022/04/23 10:24:57;;;;;;;16.67;13.90;;;;;;;17.38;46.05;97807.59;5088344;27;42327;-77
2022/04/23 10:27:26;;;;;;;18.57;14.03;;;;;;;17.39;46.09;97803.91;5094693;28;39407;-76
2022/04/23 10:29:56;;;;;;;19.67;14.90;;;;;;;17.46;45.93;97800.41;5110783;27;42107;-77
2022/04/23 10:32:24;;;;;;;18.87;13.93;;;;;;;17.50;46.28;97785.69;5110308;28;42308;-76
2022/04/23 10:34:53;;;;;;;19.37;13.80;;;;;;;17.66;45.37;97817.03;5093447;28;42155;-75
2022/04/23 10:37:24;;;;;;;15.97;12.20;;;;;;;17.71;45.55;97819.22;5093367;27;38672;-76
2022/04/23 10:40:15;;;;;;;16.87;13.33;;;;;;;17.83;45.31;97817.88;5087928;28;40536;-78
2022/04/23 10:43:07;;;;;;;16.60;12.50;;;;;;;17.95;44.24;97816.53;5111552;27;41648;-76
2022/04/23 10:45:36;;;;;;;17.20;11.60;;;;;;;18.04;44.89;97820.06;5100697;27;42266;-77
2022/04/23 10:48:29;;;;;;;15.47;12.40;;;;;;;18.15;44.78;97809.84;5093688;28;40929;-77
2022/04/23 10:51:15;;;;;;;17.50;12.47;;;;;;;18.16;44.11;97803.50;5095010;27;41775;-76
2022/04/23 10:54:06;;;;;;;13.97;11.33;;;;;;;18.25;43.39;97812.34;5112240;27;44273;-77
2022/04/23 10:56:35;;;;;;;15.63;11.87;;;;;;;18.26;43.50;97812.19;5111611;27;43133;-77
2022/04/23 10:59:03;;;;;;;17.63;12.20;;;;;;;18.32;43.02;97791.88;5108211;28;40408;-77
2022/04/23 11:01:31;;;;;;;16.53;12.23;;;;;;;18.86;43.50;97789.44;5109167;28;41483;-76
2022/04/23 11:04:12;;;;;;;15.63;11.57;;;;;;;19.59;42.74;97803.31;5109197;28;42542;-77
2022/04/23 11:12:54;;;;;;;11.13;9.77;;;;;;;20.71;38.19;97821.34;5093273;28;41106;-76
2022/04/23 11:15:22;;;;;;;10.80;9.40;;;;;;;20.87;38.10;97825.72;5110734;28;41960;-76
2022/04/23 11:17:55;;;;;;;11.10;9.77;;;;;;;20.93;37.40;97803.41;5111859;28;42295;-76
2022/04/23 11:20:36;;;;;;;12.70;9.90;;;;;;;21.08;37.45;97816.88;5107613;28;40014;-78
2022/04/23 11:23:05;;;;;;;10.93;9.20;;;;;;;20.95;38.61;97808.63;5107928;28;42251;-75
2022/04/23 11:25:35;;;;;;;15.03;10.93;;;;;;;20.60;38.54;97812.88;5093324;28;42595;-74
2022/04/23 11:28:23;;;;;;;14.03;11.30;;;;;;;20.08;39.17;97805.63;5110313;28;41211;-75
2022/04/23 11:30:52;;;;;;;13.20;10.47;;;;;;;19.77;39.74;97802.19;5111003;28;38802;-75
2022/04/23 11:33:19;;;;;;;12.10;10.63;;;;;;;19.69;41.09;97793.16;5108587;28;42079;-76
2022/04/23 11:35:47;;;;;;;14.30;10.93;;;;;;;19.40;40.16;97768.00;5109946;28;42810;-76
2022/04/23 11:38:26;;;;;;;11.07;9.87;;;;;;;19.43;40.25;97789.13;5085800;27;42636;-76
2022/04/23 11:40:55;;;;;;;11.93;9.13;;;;;;;19.41;40.81;97783.13;5100586;27;42430;-77
2022/04/23 11:43:34;;;;;;;11.87;9.67;;;;;;;19.34;40.83;97785.66;5102077;27;42586;-77
2022/04/23 11:46:03;;;;;;;14.60;11.37;;;;;;;19.11;40.60;97788.31;5097059;27;43008;-77
2022/04/23 11:48:50;;;;;;;11.73;10.20;;;;;;;19.18;40.82;97785.75;5109444;27;42685;-76
2022/04/23 11:51:20;;;;;;;12.03;10.63;;;;;;;19.10;40.55;97778.59;5093125;28;40939;-76
2022/04/23 11:53:52;;;;;;;12.80;9.77;;;;;;;19.19;40.99;97774.00;5113350;28;40777;-76
2022/04/23 11:56:30;;;;;;;13.07;9.83;;;;;;;19.18;41.19;97777.69;5113617;28;43814;-77
2022/04/23 11:58:59;;;;;;;11.17;9.87;;;;;;;19.28;40.68;97772.97;5113594;28;40903;-75